Time;durP1;ratioP1;P1;durP2;ratioP2;P2;SDS_P1;SDS_P2;PMS_P1;PMS_P2;Temp;Humidity;BMP_temperature;BMP_pressure;BME280_temperature;BME280_humidity;BME280_pressure;Samples;Min_cycle;Max_cycle;Signal;HPM_P1;HPM_P2
2023/12/24 00:00:13;;;;;;;5.33;1.70;;;;;;;;;;693083;28;829;-72
2023/12/24 00:00:33;;;;;;;5.53;1.55;;;;;;;;;;691212;28;1758;-73
2023/12/24 00:00:53;;;;;;;4.13;1.50;;;;;;;;;;691869;28;4401;-72
2023/12/24 00:01:14;;;;;;;4.83;1.43;;;;;;;;;;692874;28;976;-72
2023/12/24 00:01:34;;;;;;;5.88;1.58;;;;;;;;;;691917;28;1535;-73
2023/12/24 00:01:54;;;;;;;5.27;1.70;;;;;;;;;;692304;28;780;-73
2023/12/24 00:02:16;;;;;;;5.50;1.90;;;;;;;;;;692578;28;833;-73
2023/12/24 00:02:36;;;;;;;5.68;2.17;;;;;;;;;;690619;28;1911;-72
2023/12/24 00:02:56;;;;;;;6.27;2.10;;;;;;;;;;692784;28;983;-69
2023/12/24 00:03:17;;;;;;;5.30;1.70;;;;;;;;;;692734;28;1177;-71
2023/12/24 00:03:37;;;;;;;4.65;1.65;;;;;;;;;;691181;28;4391;-66
2023/12/24 00:03:58;;;;;;;4.23;1.57;;;;;;;;;;692518;28;1220;-70
2023/12/24 00:04:18;;;;;;;4.57;1.60;;;;;;;;;;694140;28;830;-71
2023/12/24 00:04:41;;;;;;;5.27;1.50;;;;;;;;;;693481;28;1763;-72
2023/12/24 00:05:01;;;;;;;5.57;1.55;;;;;;;;;;691166;28;822;-71
2023/12/24 00:05:22;;;;;;;5.97;2.10;;;;;;;;;;693900;28;1039;-72
2023/12/24 00:05:43;;;;;;;6.28;2.03;;;;;;;;;;693417;28;1447;-73
2023/12/24 00:06:03;;;;;;;5.47;1.50;;;;;;;;;;692350;28;810;-71
2023/12/24 00:06:24;;;;;;;8.00;1.67;;;;;;;;;;691640;28;1797;-72
2023/12/24 00:06:45;;;;;;;4.93;1.60;;;;;;;;;;691631;28;4197;-72
2023/12/24 00:07:06;;;;;;;4.13;1.52;;;;;;;;;;689979;28;821;-72
2023/12/24 00:07:27;;;;;;;4.63;1.57;;;;;;;;;;690443;28;1760;-72
2023/12/24 00:07:49;;;;;;;5.72;1.95;;;;;;;;;;691872;28;860;-72
2023/12/24 00:08:10;;;;;;;4.65;1.65;;;;;;;;;;691970;28;1078;-72
2023/12/24 00:08:32;;;;;;;5.10;1.70;;;;;;;;;;690378;28;2301;-72
2023/12/24 00:08:53;;;;;;;6.10;1.70;;;;;;;;;;695234;28;935;-72
2023/12/24 00:09:15;;;;;;;5.10;1.80;;;;;;;;;;695238;28;991;-71
2023/12/24 00:09:36;;;;;;;5.00;1.88;;;;;;;;;;690372;28;5024;-72
2023/12/24 00:09:57;;;;;;;5.50;1.90;;;;;;;;;;692632;28;1018;-72
2023/12/24 00:10:18;;;;;;;4.30;1.77;;;;;;;;;;690310;28;1188;-72
2023/12/24 00:10:39;;;;;;;5.43;2.00;;;;;;;;;;690851;28;2253;-72
2023/12/24 00:11:01;;;;;;;7.05;1.85;;;;;;;;;;692890;28;1279;-73
2023/12/24 00:11:22;;;;;;;4.60;1.38;;;;;;;;;;695595;28;880;-72
2023/12/24 00:11:42;;;;;;;4.25;1.27;;;;;;;;;;693821;28;2491;-69
2023/12/24 00:12:04;;;;;;;3.43;1.40;;;;;;;;;;695424;28;880;-71
2023/12/24 00:12:24;;;;;;;5.40;1.73;;;;;;;;;;692610;28;1800;-73
2023/12/24 00:12:44;;;;;;;5.13;1.70;;;;;;;;;;693332;28;4205;-70
2023/12/24 00:13:05;;;;;;;5.45;2.10;;;;;;;;;;692691;28;881;-72
2023/12/24 00:13:25;;;;;;;5.93;2.00;;;;;;;;;;691271;28;1016;-72
2023/12/24 00:13:45;;;;;;;5.07;1.42;;;;;;;;;;692770;28;975;-73
2023/12/24 00:14:06;;;;;;;4.73;1.50;;;;;;;;;;695662;28;1300;-73
2023/12/24 00:14:26;;;;;;;3.67;1.60;;;;;;;;;;693955;28;918;-73
2023/12/24 00:14:46;;;;;;;5.32;1.80;;;;;;;;;;695275;28;1088;-72
2023/12/24 00:15:07;;;;;;;5.07;1.77;;;;;;;;;;695529;28;1114;-72
2023/12/24 00:15:28;;;;;;;5.47;1.73;;;;;;;;;;695060;28;2489;-72
2023/12/24 00:15:48;;;;;;;4.77;1.83;;;;;;;;;;691777;28;4447;-73
2023/12/24 00:16:08;;;;;;;6.30;1.88;;;;;;;;;;689934;28;1298;-72
2023/12/24 00:16:28;;;;;;;4.43;1.80;;;;;;;;;;688589;28;2213;-72
2023/12/24 00:16:49;;;;;;;3.87;1.60;;;;;;;;;;689932;28;1353;-72
2023/12/24 00:17:09;;;;;;;4.03;1.92;;;;;;;;;;689972;28;878;-74
2023/12/24 00:17:31;;;;;;;5.77;2.27;;;;;;;;;;688705;28;2678;-73
2023/12/24 00:17:51;;;;;;;4.75;1.90;;;;;;;;;;692754;28;995;-74
2023/12/24 00:18:12;;;;;;;6.73;1.90;;;;;;;;;;692795;28;1982;-73
2023/12/24 00:18:32;;;;;;;6.40;1.80;;;;;;;;;;690842;28;1267;-74
2023/12/24 00:18:52;;;;;;;4.60;1.70;;;;;;;;;;687849;28;4421;-73
2023/12/24 00:19:12;;;;;;;3.57;1.60;;;;;;;;;;687326;28;905;-73
2023/12/24 00:19:33;;;;;;;5.72;1.60;;;;;;;;;;687438;28;2731;-72
2023/12/24 00:19:53;;;;;;;6.57;1.90;;;;;;;;;;689050;28;1415;-69
2023/12/24 00:20:13;;;;;;;4.50;1.73;;;;;;;;;;687376;28;1257;-73
2023/12/24 00:20:33;;;;;;;4.82;1.73;;;;;;;;;;685786;28;1692;-71
2023/12/24 00:20:54;;;;;;;5.30;2.10;;;;;;;;;;684092;28;905;-73
2023/12/24 00:21:14;;;;;;;4.80;1.87;;;;;;;;;;684756;28;913;-73
2023/12/24 00:21:34;;;;;;;4.43;1.70;;;;;;;;;;683541;28;1792;-73
2023/12/24 00:21:55;;;;;;;4.93;1.90;;;;;;;;;;686577;28;4162;-73
2023/12/24 00:22:15;;;;;;;6.13;1.90;;;;;;;;;;687568;28;1533;-73
2023/12/24 00:22:35;;;;;;;4.00;1.75;;;;;;;;;;690329;28;1716;-69
2023/12/24 00:23:05;;;;;;;4.27;1.70;;;;;;;;;;691922;28;1464;-73
2023/12/24 00:23:25;;;;;;;3.85;1.73;;;;;;;;;;689404;28;1741;-72
2023/12/24 00:23:47;;;;;;;5.17;2.00;;;;;;;;;;691996;28;824;-72
2023/12/24 00:24:08;;;;;;;4.38;1.73;;;;;;;;;;691147;28;1513;-72
2023/12/24 00:24:28;;;;;;;6.18;1.90;;;;;;;;;;689844;28;2434;-72
2023/12/24 00:24:49;;;;;;;5.57;1.80;;;;;;;;;;691009;28;4225;-73
2023/12/24 00:25:09;;;;;;;6.00;1.90;;;;;;;;;;691230;28;926;-72
2023/12/24 00:25:30;;;;;;;5.55;1.77;;;;;;;;;;690575;28;1706;-73
2023/12/24 00:25:50;;;;;;;5.10;1.70;;;;;;;;;;691179;28;935;-73
2023/12/24 00:26:10;;;;;;;4.77;1.70;;;;;;;;;;689967;28;877;-73
2023/12/24 00:26:31;;;;;;;6.18;1.90;;;;;;;;;;690611;28;1738;-72
2023/12/24 00:26:52;;;;;;;4.93;1.80;;;;;;;;;;691266;28;1387;-74
2023/12/24 00:27:12;;;;;;;4.53;1.70;;;;;;;;;;690920;28;853;-70
2023/12/24 00:27:34;;;;;;;5.60;1.77;;;;;;;;;;690112;28;2902;-73
2023/12/24 00:27:54;;;;;;;4.97;1.60;;;;;;;;;;690494;28;4358;-72
2023/12/24 00:28:14;;;;;;;5.43;1.90;;;;;;;;;;690150;28;1397;-73
2023/12/24 00:28:35;;;;;;;5.43;1.90;;;;;;;;;;689094;28;1479;-73
2023/12/24 00:28:55;;;;;;;5.23;1.60;;;;;;;;;;693352;28;1211;-73
2023/12/24 00:29:15;;;;;;;5.57;1.67;;;;;;;;;;693405;28;1119;-74
2023/12/24 00:29:36;;;;;;;5.30;1.60;;;;;;;;;;691706;28;914;-73
2023/12/24 00:29:56;;;;;;;3.78;1.63;;;;;;;;;;693315;28;818;-73
2023/12/24 00:30:17;;;;;;;4.07;1.63;;;;;;;;;;693463;28;904;-71
2023/12/24 00:30:37;;;;;;;4.63;1.70;;;;;;;;;;692933;28;4439;-72
2023/12/24 00:30:57;;;;;;;4.27;1.70;;;;;;;;;;694691;28;812;-72
2023/12/24 00:31:18;;;;;;;4.30;1.70;;;;;;;;;;692215;28;900;-73
2023/12/24 00:31:38;;;;;;;4.65;1.60;;;;;;;;;;691511;28;1702;-73
2023/12/24 00:31:58;;;;;;;5.13;1.73;;;;;;;;;;689665;28;1454;-72
2023/12/24 00:32:19;;;;;;;5.05;1.85;;;;;;;;;;689611;28;829;-75
2023/12/24 00:32:40;;;;;;;5.95;1.77;;;;;;;;;;688352;28;1836;-71
2023/12/24 00:33:00;;;;;;;6.10;1.90;;;;;;;;;;692486;28;1214;-72
2023/12/24 00:33:21;;;;;;;4.47;1.67;;;;;;;;;;692715;28;813;-72
2023/12/24 00:33:41;;;;;;;6.23;1.73;;;;;;;;;;693422;28;4413;-73
2023/12/24 00:34:01;;;;;;;5.30;1.60;;;;;;;;;;697283;28;959;-69
2023/12/24 00:34:21;;;;;;;3.70;1.55;;;;;;;;;;693981;28;1219;-71
2023/12/24 00:34:42;;;;;;;4.17;1.47;;;;;;;;;;693118;28;1745;-71
2023/12/24 00:35:02;;;;;;;6.73;1.90;;;;;;;;;;692207;28;1277;-71
2023/12/24 00:35:23;;;;;;;7.10;1.90;;;;;;;;;;691655;28;1186;-69
2023/12/24 00:35:43;;;;;;;6.57;1.77;;;;;;;;;;691124;28;1445;-70
2023/12/24 00:36:03;;;;;;;7.82;1.90;;;;;;;;;;693050;28;912;-70
2023/12/24 00:36:25;;;;;;;3.92;1.70;;;;;;;;;;692513;28;1314;-71
2023/12/24 00:36:46;;;;;;;5.65;2.00;;;;;;;;;;691190;28;4218;-70
2023/12/24 00:37:06;;;;;;;4.40;1.60;;;;;;;;;;691626;28;1315;-70
2023/12/24 00:37:27;;;;;;;3.13;1.55;;;;;;;;;;688139;28;1799;-69
2023/12/24 00:37:49;;;;;;;4.70;1.70;;;;;;;;;;689722;28;877;-70
2023/12/24 00:38:09;;;;;;;5.35;1.90;;;;;;;;;;688178;28;1987;-69
2023/12/24 00:38:29;;;;;;;6.65;2.00;;;;;;;;;;693958;28;2219;-70
2023/12/24 00:38:49;;;;;;;5.77;1.90;;;;;;;;;;694812;28;4935;-70
2023/12/24 00:39:10;;;;;;;5.87;1.83;;;;;;;;;;692007;28;1277;-71
2023/12/24 00:39:31;;;;;;;5.05;1.80;;;;;;;;;;690231;28;1835;-71
2023/12/24 00:39:51;;;;;;;5.50;1.60;;;;;;;;;;691905;28;4868;-72
2023/12/24 00:40:11;;;;;;;4.93;1.70;;;;;;;;;;692541;28;742;-70
2023/12/24 00:40:33;;;;;;;6.00;1.87;;;;;;;;;;688567;28;1711;-70
2023/12/24 00:40:53;;;;;;;4.28;1.70;;;;;;;;;;685088;28;2125;-71
2023/12/24 00:41:14;;;;;;;4.93;1.60;;;;;;;;;;687692;28;829;-68
2023/12/24 00:41:37;;;;;;;6.00;1.90;;;;;;;;;;688472;28;2233;-71
2023/12/24 00:41:58;;;;;;;4.65;1.77;;;;;;;;;;689126;28;1493;-70
2023/12/24 00:42:18;;;;;;;5.10;1.63;;;;;;;;;;689792;28;1363;-72
2023/12/24 00:42:39;;;;;;;5.72;1.73;;;;;;;;;;691373;28;4273;-71
2023/12/24 00:43:01;;;;;;;4.43;1.63;;;;;;;;;;693741;28;917;-70
2023/12/24 00:43:21;;;;;;;4.75;1.70;;;;;;;;;;695270;28;1194;-72
2023/12/24 00:43:42;;;;;;;5.77;1.80;;;;;;;;;;690857;28;1154;-71
2023/12/24 00:44:02;;;;;;;4.30;1.70;;;;;;;;;;689807;28;1387;-69
2023/12/24 00:44:22;;;;;;;3.43;1.50;;;;;;;;;;683367;28;1334;-69
2023/12/24 00:44:44;;;;;;;3.53;1.40;;;;;;;;;;678963;29;2376;-72
2023/12/24 00:45:05;;;;;;;4.20;1.40;;;;;;;;;;685544;28;1124;-71
2023/12/24 00:45:25;;;;;;;5.30;1.63;;;;;;;;;;687179;28;1144;-70
2023/12/24 00:45:45;;;;;;;3.70;1.60;;;;;;;;;;685194;28;4324;-68
2023/12/24 00:46:05;;;;;;;2.83;1.23;;;;;;;;;;687195;28;1550;-69
2023/12/24 00:46:26;;;;;;;4.30;1.50;;;;;;;;;;689759;28;1085;-71
2023/12/24 00:46:47;;;;;;;4.13;1.65;;;;;;;;;;689580;28;2018;-70
2023/12/24 00:47:07;;;;;;;5.15;1.55;;;;;;;;;;688899;28;984;-71
2023/12/24 00:47:27;;;;;;;3.97;1.47;;;;;;;;;;691008;28;955;-71
2023/12/24 00:47:47;;;;;;;4.13;1.57;;;;;;;;;;691614;28;2339;-70
2023/12/24 00:48:09;;;;;;;3.30;1.35;;;;;;;;;;691143;28;1564;-71
2023/12/24 00:48:29;;;;;;;4.25;1.40;;;;;;;;;;690697;28;1729;-71
2023/12/24 00:48:50;;;;;;;4.17;1.50;;;;;;;;;;690816;28;4216;-70
2023/12/24 00:49:10;;;;;;;4.70;1.55;;;;;;;;;;692198;28;1210;-71
2023/12/24 00:49:31;;;;;;;4.73;1.60;;;;;;;;;;690948;28;1246;-71
2023/12/24 00:49:51;;;;;;;3.80;1.30;;;;;;;;;;692055;28;1026;-70
2023/12/24 00:50:11;;;;;;;3.78;1.48;;;;;;;;;;689801;28;809;-72
2023/12/24 00:50:31;;;;;;;3.73;1.40;;;;;;;;;;688338;28;2504;-69
2023/12/24 00:50:52;;;;;;;3.33;1.20;;;;;;;;;;691302;28;798;-69
2023/12/24 00:51:13;;;;;;;4.70;1.60;;;;;;;;;;692674;28;1339;-71
2023/12/24 00:51:33;;;;;;;4.60;1.70;;;;;;;;;;691353;28;2315;-68
2023/12/24 00:51:56;;;;;;;3.83;1.25;;;;;;;;;;688836;28;4360;-68
2023/12/24 00:52:16;;;;;;;4.70;1.40;;;;;;;;;;688944;28;1319;-69
2023/12/24 00:52:36;;;;;;;4.03;1.40;;;;;;;;;;690162;28;2063;-68
2023/12/24 00:52:57;;;;;;;3.75;1.40;;;;;;;;;;693228;28;1269;-69
2023/12/24 00:53:17;;;;;;;3.03;1.50;;;;;;;;;;690848;28;1232;-69
2023/12/24 00:53:37;;;;;;;3.40;1.50;;;;;;;;;;688268;28;2256;-69
2023/12/24 00:53:59;;;;;;;3.20;1.50;;;;;;;;;;689503;28;864;-69
2023/12/24 00:54:19;;;;;;;4.28;1.70;;;;;;;;;;689691;28;982;-70
2023/12/24 00:54:40;;;;;;;4.38;1.65;;;;;;;;;;685344;28;4254;-72
2023/12/24 00:55:01;;;;;;;4.50;1.60;;;;;;;;;;686831;28;1623;-69
2023/12/24 00:55:21;;;;;;;4.15;1.70;;;;;;;;;;687282;28;924;-69
2023/12/24 00:55:41;;;;;;;3.60;1.87;;;;;;;;;;688436;28;1850;-69
2023/12/24 00:56:02;;;;;;;3.95;1.63;;;;;;;;;;689470;28;1361;-69
2023/12/24 00:56:23;;;;;;;4.93;1.85;;;;;;;;;;689184;28;1406;-69
2023/12/24 00:56:43;;;;;;;5.20;1.83;;;;;;;;;;687796;28;1172;-69
2023/12/24 00:57:03;;;;;;;4.97;1.60;;;;;;;;;;690549;28;1310;-69
2023/12/24 00:57:24;;;;;;;3.73;1.60;;;;;;;;;;694240;28;1262;-69
2023/12/24 00:57:44;;;;;;;4.03;1.50;;;;;;;;;;690791;28;4743;-70
2023/12/24 00:58:06;;;;;;;4.18;1.67;;;;;;;;;;689668;28;2035;-70
2023/12/24 00:58:27;;;;;;;4.45;1.75;;;;;;;;;;683365;28;2354;-70
2023/12/24 00:58:47;;;;;;;4.70;1.50;;;;;;;;;;686578;28;897;-71
2023/12/24 00:59:07;;;;;;;3.97;1.33;;;;;;;;;;687453;28;1319;-69
2023/12/24 00:59:28;;;;;;;4.73;1.60;;;;;;;;;;685921;28;1772;-70
2023/12/24 00:59:48;;;;;;;5.00;1.60;;;;;;;;;;689490;28;908;-72
2023/12/24 01:00:09;;;;;;;3.35;1.48;;;;;;;;;;689430;28;1246;-71
2023/12/24 01:00:29;;;;;;;2.93;1.40;;;;;;;;;;687984;28;2354;-72
2023/12/24 01:00:49;;;;;;;3.23;1.40;;;;;;;;;;689386;28;4258;-72
2023/12/24 01:01:10;;;;;;;2.80;1.47;;;;;;;;;;692568;28;848;-72
2023/12/24 01:01:30;;;;;;;4.07;1.50;;;;;;;;;;688684;28;940;-71
2023/12/24 01:01:50;;;;;;;4.37;1.40;;;;;;;;;;689979;28;1071;-71
2023/12/24 01:02:10;;;;;;;3.95;1.35;;;;;;;;;;692112;28;935;-71
2023/12/24 01:02:31;;;;;;;3.90;1.40;;;;;;;;;;694008;28;2534;-71
2023/12/24 01:02:51;;;;;;;3.50;1.40;;;;;;;;;;694992;28;1210;-71
2023/12/24 01:03:12;;;;;;;4.15;1.38;;;;;;;;;;694846;28;1338;-70
2023/12/24 01:03:32;;;;;;;3.87;1.40;;;;;;;;;;691408;28;1730;-68
2023/12/24 01:03:53;;;;;;;3.03;1.42;;;;;;;;;;689026;28;4308;-68
2023/12/24 01:04:14;;;;;;;2.83;1.40;;;;;;;;;;689629;28;1172;-72
2023/12/24 01:04:34;;;;;;;3.13;1.40;;;;;;;;;;685539;28;1576;-72
2023/12/24 01:04:54;;;;;;;3.33;1.30;;;;;;;;;;686335;28;1446;-71
2023/12/24 01:05:15;;;;;;;3.17;1.23;;;;;;;;;;687248;28;1144;-74
2023/12/24 01:05:35;;;;;;;3.10;1.50;;;;;;;;;;688590;28;1817;-71
2023/12/24 01:05:55;;;;;;;2.80;1.30;;;;;;;;;;689405;28;1363;-71
2023/12/24 01:06:16;;;;;;;3.53;1.33;;;;;;;;;;686947;28;1327;-72
2023/12/24 01:06:36;;;;;;;5.13;1.60;;;;;;;;;;684867;28;4323;-71
2023/12/24 01:06:57;;;;;;;3.27;1.40;;;;;;;;;;686033;28;1312;-71
2023/12/24 01:07:17;;;;;;;3.85;1.40;;;;;;;;;;687899;28;770;-72
2023/12/24 01:07:37;;;;;;;4.20;1.23;;;;;;;;;;688003;28;2086;-68
2023/12/24 01:07:57;;;;;;;4.00;1.40;;;;;;;;;;695421;28;1674;-72
2023/12/24 01:08:18;;;;;;;2.90;1.40;;;;;;;;;;693444;28;1055;-69
2023/12/24 01:08:38;;;;;;;4.20;1.37;;;;;;;;;;689717;28;1708;-70
2023/12/24 01:08:58;;;;;;;3.60;1.37;;;;;;;;;;691671;28;1019;-73
2023/12/24 01:09:18;;;;;;;2.65;1.17;;;;;;;;;;691411;28;999;-73
2023/12/24 01:09:39;;;;;;;2.70;1.40;;;;;;;;;;685030;28;4541;-71
2023/12/24 01:09:59;;;;;;;3.58;1.33;;;;;;;;;;684414;28;1267;-71
2023/12/24 01:10:20;;;;;;;4.10;1.57;;;;;;;;;;684057;28;1162;-72
2023/12/24 01:10:40;;;;;;;3.07;1.40;;;;;;;;;;688631;28;1823;-73
2023/12/24 01:11:00;;;;;;;3.17;1.30;;;;;;;;;;688679;28;1056;-73
2023/12/24 01:11:20;;;;;;;2.00;1.10;;;;;;;;;;689775;28;1280;-73
2023/12/24 01:11:41;;;;;;;2.17;1.17;;;;;;;;;;685528;28;1852;-73
2023/12/24 01:12:01;;;;;;;3.35;1.35;;;;;;;;;;687088;28;967;-71
2023/12/24 01:12:22;;;;;;;3.50;1.40;;;;;;;;;;686774;28;1346;-72
2023/12/24 01:12:43;;;;;;;3.67;1.30;;;;;;;;;;685126;28;5015;-72
2023/12/24 01:13:03;;;;;;;4.03;1.40;;;;;;;;;;688972;28;897;-69
2023/12/24 01:13:24;;;;;;;3.28;1.40;;;;;;;;;;689775;28;1344;-71
2023/12/24 01:13:44;;;;;;;3.27;1.40;;;;;;;;;;691504;28;2442;-70
2023/12/24 01:14:04;;;;;;;5.20;1.50;;;;;;;;;;689827;28;1207;-71
2023/12/24 01:14:25;;;;;;;5.40;1.60;;;;;;;;;;690529;28;782;-71
2023/12/24 01:14:45;;;;;;;3.50;1.40;;;;;;;;;;692410;28;1207;-71
2023/12/24 01:15:06;;;;;;;3.30;1.30;;;;;;;;;;690481;28;1236;-71
2023/12/24 01:15:26;;;;;;;3.67;1.30;;;;;;;;;;694418;28;885;-66
2023/12/24 01:15:46;;;;;;;3.20;1.10;;;;;;;;;;692625;28;4219;-68
2023/12/24 01:16:07;;;;;;;3.08;1.55;;;;;;;;;;693455;28;1139;-70
2023/12/24 01:16:27;;;;;;;3.17;1.70;;;;;;;;;;691103;28;5189;-68
2023/12/24 01:16:47;;;;;;;2.83;1.30;;;;;;;;;;688268;28;1569;-70
2023/12/24 01:17:07;;;;;;;2.67;1.30;;;;;;;;;;688579;28;735;-70
2023/12/24 01:17:28;;;;;;;2.90;1.30;;;;;;;;;;688990;28;822;-71
2023/12/24 01:17:48;;;;;;;2.77;1.33;;;;;;;;;;689259;28;1858;-66
2023/12/24 01:18:08;;;;;;;2.85;1.40;;;;;;;;;;692421;28;1918;-67
2023/12/24 01:18:28;;;;;;;3.67;1.50;;;;;;;;;;695105;28;991;-70
2023/12/24 01:18:51;;;;;;;3.60;1.50;;;;;;;;;;694205;28;4325;-69
2023/12/24 01:19:11;;;;;;;3.72;1.40;;;;;;;;;;691833;28;995;-70
2023/12/24 01:19:31;;;;;;;3.63;1.40;;;;;;;;;;690915;28;2227;-70
2023/12/24 01:19:51;;;;;;;2.20;1.20;;;;;;;;;;691490;28;841;-69
2023/12/24 01:20:15;;;;;;;2.85;1.20;;;;;;;;;;687081;28;1206;-67
2023/12/24 01:20:36;;;;;;;3.65;1.25;;;;;;;;;;688706;28;1733;-70
2023/12/24 01:20:56;;;;;;;3.40;1.20;;;;;;;;;;686734;28;1164;-67
2023/12/24 01:21:16;;;;;;;2.10;1.03;;;;;;;;;;686228;28;1205;-66
2023/12/24 01:21:37;;;;;;;3.17;1.10;;;;;;;;;;683631;28;4256;-69
2023/12/24 01:21:57;;;;;;;3.77;1.30;;;;;;;;;;689981;28;1454;-70
2023/12/24 01:22:17;;;;;;;3.80;1.40;;;;;;;;;;687196;28;1291;-68
2023/12/24 01:22:38;;;;;;;3.60;1.00;;;;;;;;;;685637;28;1718;-70
2023/12/24 01:22:58;;;;;;;4.47;1.13;;;;;;;;;;687748;28;1154;-70
2023/12/24 01:23:18;;;;;;;3.40;1.20;;;;;;;;;;686913;28;1168;-70
2023/12/24 01:23:39;;;;;;;4.20;1.30;;;;;;;;;;685763;28;1745;-67
2023/12/24 01:23:59;;;;;;;4.13;1.15;;;;;;;;;;684284;28;1389;-71
2023/12/24 01:24:19;;;;;;;2.23;1.10;;;;;;;;;;687052;28;929;-71
2023/12/24 01:24:40;;;;;;;3.23;1.10;;;;;;;;;;688162;28;4461;-70
2023/12/24 01:25:00;;;;;;;4.30;1.15;;;;;;;;;;689807;28;960;-70
2023/12/24 01:25:20;;;;;;;2.83;1.10;;;;;;;;;;692067;28;1419;-71
2023/12/24 01:25:41;;;;;;;3.30;1.10;;;;;;;;;;687827;28;2739;-69
2023/12/24 01:26:01;;;;;;;3.45;1.10;;;;;;;;;;691659;28;873;-69
2023/12/24 01:26:21;;;;;;;3.70;1.03;;;;;;;;;;689467;28;782;-66
2023/12/24 01:26:42;;;;;;;3.17;1.40;;;;;;;;;;686090;28;2236;-67
2023/12/24 01:27:02;;;;;;;2.40;1.20;;;;;;;;;;685162;28;1432;-67
2023/12/24 01:27:23;;;;;;;3.73;1.40;;;;;;;;;;684911;28;816;-67
2023/12/24 01:27:44;;;;;;;4.22;1.10;;;;;;;;;;685076;28;4317;-68
2023/12/24 01:28:04;;;;;;;3.20;1.10;;;;;;;;;;681403;28;1176;-68
2023/12/24 01:28:25;;;;;;;3.65;1.10;;;;;;;;;;684633;28;878;-68
2023/12/24 01:28:45;;;;;;;2.53;0.90;;;;;;;;;;682823;28;1499;-71
2023/12/24 01:29:05;;;;;;;3.67;1.03;;;;;;;;;;689439;28;1194;-73
2023/12/24 01:29:26;;;;;;;4.22;1.20;;;;;;;;;;689003;28;813;-73
2023/12/24 01:29:46;;;;;;;3.47;1.40;;;;;;;;;;689742;28;1638;-73
2023/12/24 01:30:07;;;;;;;2.80;1.20;;;;;;;;;;693393;28;912;-72
2023/12/24 01:30:27;;;;;;;2.47;1.25;;;;;;;;;;692639;28;1378;-71
2023/12/24 01:30:48;;;;;;;3.08;1.25;;;;;;;;;;690294;28;4250;-68
2023/12/24 01:31:09;;;;;;;3.80;1.27;;;;;;;;;;690500;28;949;-71
2023/12/24 01:31:30;;;;;;;4.38;1.20;;;;;;;;;;689246;28;1815;-70
2023/12/24 01:31:50;;;;;;;3.97;1.10;;;;;;;;;;686264;28;924;-72
2023/12/24 01:32:11;;;;;;;3.00;1.17;;;;;;;;;;685324;28;1176;-74
2023/12/24 01:32:31;;;;;;;2.33;1.10;;;;;;;;;;690663;28;2348;-72
2023/12/24 01:32:51;;;;;;;2.70;1.20;;;;;;;;;;692401;28;805;-72
2023/12/24 01:33:12;;;;;;;3.38;1.10;;;;;;;;;;686918;28;1352;-71
2023/12/24 01:33:32;;;;;;;3.90;1.20;;;;;;;;;;687979;28;2368;-72
2023/12/24 01:33:53;;;;;;;3.28;1.02;;;;;;;;;;683762;28;4438;-70
2023/12/24 01:34:14;;;;;;;2.67;1.10;;;;;;;;;;687111;28;1254;-67
2023/12/24 01:34:34;;;;;;;2.38;1.10;;;;;;;;;;685977;28;2771;-69
2023/12/24 01:34:55;;;;;;;3.97;1.30;;;;;;;;;;684517;28;1258;-71
2023/12/24 01:35:15;;;;;;;4.70;1.23;;;;;;;;;;687144;28;1437;-72
2023/12/24 01:35:37;;;;;;;3.03;1.17;;;;;;;;;;688782;28;1760;-72
2023/12/24 01:35:57;;;;;;;2.30;1.00;;;;;;;;;;688920;28;1318;-73
2023/12/24 01:36:17;;;;;;;2.80;1.20;;;;;;;;;;687134;28;758;-72
2023/12/24 01:36:38;;;;;;;4.27;1.10;;;;;;;;;;684949;28;4435;-70
2023/12/24 01:36:59;;;;;;;3.40;1.10;;;;;;;;;;687232;28;1027;-72
2023/12/24 01:37:19;;;;;;;3.22;1.33;;;;;;;;;;692926;28;1405;-73
2023/12/24 01:37:40;;;;;;;3.60;1.17;;;;;;;;;;693844;28;1601;-71
2023/12/24 01:38:00;;;;;;;3.63;1.13;;;;;;;;;;697689;28;983;-72
2023/12/24 01:38:20;;;;;;;2.43;1.10;;;;;;;;;;698114;28;1926;-72
2023/12/24 01:38:40;;;;;;;2.60;1.07;;;;;;;;;;696449;28;2313;-69
2023/12/24 01:39:01;;;;;;;2.33;1.00;;;;;;;;;;697677;28;4997;-73
2023/12/24 01:39:21;;;;;;;2.80;1.13;;;;;;;;;;691637;28;1355;-71
2023/12/24 01:39:41;;;;;;;3.43;1.30;;;;;;;;;;690269;28;4266;-71
2023/12/24 01:40:02;;;;;;;3.60;1.47;;;;;;;;;;691758;28;785;-72
2023/12/24 01:40:22;;;;;;;5.00;1.80;;;;;;;;;;693717;28;1486;-72
2023/12/24 01:40:49;;;;;;;2.53;1.20;;;;;;;;;;690674;28;1744;-72
2023/12/24 01:41:10;;;;;;;3.30;1.30;;;;;;;;;;691175;28;924;-71
2023/12/24 01:41:31;;;;;;;4.20;1.70;;;;;;;;;;692963;28;987;-70
2023/12/24 01:41:51;;;;;;;3.58;1.30;;;;;;;;;;690429;28;1198;-73
2023/12/24 01:42:11;;;;;;;4.75;1.58;;;;;;;;;;690531;28;1319;-70
2023/12/24 01:42:32;;;;;;;3.57;1.40;;;;;;;;;;687997;28;2220;-73
2023/12/24 01:42:53;;;;;;;2.17;1.20;;;;;;;;;;690503;28;4250;-69
2023/12/24 01:43:13;;;;;;;3.10;1.30;;;;;;;;;;691776;28;891;-71
2023/12/24 01:43:33;;;;;;;3.60;1.37;;;;;;;;;;690471;28;1183;-71
2023/12/24 01:43:53;;;;;;;3.45;1.40;;;;;;;;;;694469;28;1981;-72
2023/12/24 01:44:14;;;;;;;4.27;1.43;;;;;;;;;;695467;28;904;-71
2023/12/24 01:44:34;;;;;;;3.17;1.40;;;;;;;;;;696690;28;1855;-72
2023/12/24 01:44:54;;;;;;;2.78;1.40;;;;;;;;;;692006;28;1352;-71
2023/12/24 01:45:15;;;;;;;4.47;1.53;;;;;;;;;;692503;28;1063;-68
2023/12/24 01:45:35;;;;;;;4.37;1.70;;;;;;;;;;688240;28;984;-72
2023/12/24 01:45:55;;;;;;;3.33;1.60;;;;;;;;;;689118;28;5771;-72
2023/12/24 01:46:20;;;;;;;3.90;1.60;;;;;;;;;;689199;28;1138;-73
2023/12/24 01:46:40;;;;;;;3.63;1.48;;;;;;;;;;682732;28;1394;-71
2023/12/24 01:47:01;;;;;;;3.40;1.30;;;;;;;;;;688551;28;1308;-72
2023/12/24 01:47:21;;;;;;;3.60;1.30;;;;;;;;;;688820;28;916;-71
2023/12/24 01:47:42;;;;;;;2.83;1.17;;;;;;;;;;691504;28;2974;-71
2023/12/24 01:48:03;;;;;;;4.00;1.50;;;;;;;;;;693531;28;932;-67
2023/12/24 01:48:24;;;;;;;3.00;1.33;;;;;;;;;;690422;28;888;-74
2023/12/24 01:48:44;;;;;;;3.20;1.30;;;;;;;;;;691268;28;4793;-71
2023/12/24 01:49:04;;;;;;;4.07;1.50;;;;;;;;;;689894;28;868;-72
2023/12/24 01:49:25;;;;;;;3.55;1.30;;;;;;;;;;690181;28;960;-71
2023/12/24 01:49:47;;;;;;;3.45;1.40;;;;;;;;;;686311;28;2476;-74
2023/12/24 01:50:08;;;;;;;3.25;1.30;;;;;;;;;;686833;28;956;-71
2023/12/24 01:50:29;;;;;;;3.50;1.10;;;;;;;;;;686591;28;1365;-72
2023/12/24 01:50:50;;;;;;;3.90;1.30;;;;;;;;;;681780;28;1799;-72
2023/12/24 01:51:10;;;;;;;3.58;1.30;;;;;;;;;;682353;28;1077;-72
2023/12/24 01:51:31;;;;;;;3.90;1.30;;;;;;;;;;679697;28;2328;-71
2023/12/24 01:51:52;;;;;;;3.15;1.10;;;;;;;;;;686284;28;4366;-72
2023/12/24 01:52:12;;;;;;;2.40;1.27;;;;;;;;;;688992;28;1116;-73
2023/12/24 01:52:33;;;;;;;2.45;1.10;;;;;;;;;;691135;28;1923;-69
2023/12/24 01:52:54;;;;;;;2.55;1.10;;;;;;;;;;694130;28;1462;-68
2023/12/24 01:53:16;;;;;;;1.50;0.93;;;;;;;;;;692110;28;1298;-69
2023/12/24 01:53:37;;;;;;;2.40;1.00;;;;;;;;;;691172;28;1669;-71
2023/12/24 01:53:57;;;;;;;3.20;1.10;;;;;;;;;;690743;28;872;-69
2023/12/24 01:54:18;;;;;;;3.20;1.13;;;;;;;;;;689382;28;838;-72
2023/12/24 01:54:38;;;;;;;2.90;1.20;;;;;;;;;;686132;28;4262;-70
2023/12/24 01:54:58;;;;;;;2.27;1.03;;;;;;;;;;685623;28;1536;-71
2023/12/24 01:55:20;;;;;;;3.33;1.10;;;;;;;;;;685807;28;889;-69
2023/12/24 01:55:40;;;;;;;3.28;1.10;;;;;;;;;;690214;28;1792;-70
2023/12/24 01:56:01;;;;;;;3.20;1.10;;;;;;;;;;689493;28;1340;-71
2023/12/24 01:56:22;;;;;;;2.25;1.10;;;;;;;;;;689534;28;1195;-72
2023/12/24 01:56:42;;;;;;;2.58;1.00;;;;;;;;;;685641;28;2447;-71
2023/12/24 01:57:03;;;;;;;4.33;1.10;;;;;;;;;;688598;28;1420;-71
2023/12/24 01:57:24;;;;;;;3.85;1.10;;;;;;;;;;682064;28;1369;-73
2023/12/24 01:57:45;;;;;;;2.03;1.00;;;;;;;;;;684810;28;4338;-72
2023/12/24 01:58:05;;;;;;;2.47;1.10;;;;;;;;;;685272;28;1996;-72
2023/12/24 01:58:26;;;;;;;2.50;1.00;;;;;;;;;;690154;28;1393;-73
2023/12/24 01:58:46;;;;;;;1.90;0.90;;;;;;;;;;693257;28;1773;-73
2023/12/24 01:59:10;;;;;;;2.83;1.00;;;;;;;;;;687869;28;1310;-73
2023/12/24 01:59:33;;;;;;;1.98;1.02;;;;;;;;;;684725;28;2394;-71
2023/12/24 01:59:54;;;;;;;1.85;0.90;;;;;;;;;;683350;28;1551;-72
2023/12/24 02:00:16;;;;;;;4.70;1.00;;;;;;;;;;684435;28;1240;-71
2023/12/24 02:00:37;;;;;;;3.40;1.00;;;;;;;;;;681232;28;4476;-73
2023/12/24 02:00:57;;;;;;;3.17;1.00;;;;;;;;;;688284;28;1141;-73
2023/12/24 02:01:18;;;;;;;2.53;1.00;;;;;;;;;;689675;28;1191;-73
2023/12/24 02:01:38;;;;;;;2.70;1.00;;;;;;;;;;689689;28;2545;-73
2023/12/24 02:01:59;;;;;;;3.30;1.03;;;;;;;;;;685200;28;1160;-74
2023/12/24 02:02:19;;;;;;;2.53;1.02;;;;;;;;;;690875;28;1275;-72
2023/12/24 02:02:39;;;;;;;2.58;1.00;;;;;;;;;;688374;28;1589;-73
2023/12/24 02:03:00;;;;;;;2.57;1.10;;;;;;;;;;689112;28;1231;-71
2023/12/24 02:03:21;;;;;;;2.50;1.00;;;;;;;;;;689155;28;1219;-72
2023/12/24 02:03:41;;;;;;;2.60;1.00;;;;;;;;;;685563;28;4266;-73
2023/12/24 02:04:02;;;;;;;5.15;1.20;;;;;;;;;;686792;28;853;-73
2023/12/24 02:04:22;;;;;;;2.57;1.13;;;;;;;;;;682799;28;837;-70
2023/12/24 02:04:42;;;;;;;3.05;1.10;;;;;;;;;;687882;28;1815;-73
2023/12/24 02:05:03;;;;;;;2.73;1.10;;;;;;;;;;690598;28;1323;-71
2023/12/24 02:05:23;;;;;;;3.75;1.00;;;;;;;;;;689848;28;1215;-73
2023/12/24 02:05:45;;;;;;;6.10;1.37;;;;;;;;;;691091;28;1851;-72
2023/12/24 02:06:06;;;;;;;2.85;1.05;;;;;;;;;;691800;28;1239;-70
2023/12/24 02:06:27;;;;;;;3.22;1.00;;;;;;;;;;685351;28;1478;-71
2023/12/24 02:06:49;;;;;;;3.10;1.15;;;;;;;;;;687222;28;4476;-72
2023/12/24 02:07:09;;;;;;;4.07;1.40;;;;;;;;;;686882;28;1448;-72
2023/12/24 02:07:34;;;;;;;4.57;1.40;;;;;;;;;;689282;28;1441;-72
2023/12/24 02:07:58;;;;;;;3.28;1.30;;;;;;;;;;686046;28;961;-72
2023/12/24 02:08:21;;;;;;;3.28;1.10;;;;;;;;;;683840;28;1480;-72